sensor_id;sensor_type;location;lat;lon;timestamp;temperature;humidity
54006;DHT22;39919;38.160;-122.260;2023-01-16T00:00:42;11.20;99.90
54006;DHT22;39919;38.160;-122.260;2023-01-16T00:03:11;11.20;99.90
54006;DHT22;39919;38.160;-122.260;2023-01-16T00:05:41;11.10;99.90
54006;DHT22;39919;38.160;-122.260;2023-01-16T00:08:12;11.10;99.90
54006;DHT22;39919;38.160;-122.260;2023-01-16T00:10:43;11.10;99.90
54006;DHT22;39919;38.160;-122.260;2023-01-16T00:13:12;11.10;99.90
54006;DHT22;39919;38.160;-122.260;2023-01-16T00:15:45;11.10;99.90
54006;DHT22;39919;38.160;-122.260;2023-01-16T00:18:14;11.10;99.90
54006;DHT22;39919;38.160;-122.260;2023-01-16T00:20:45;11.10;99.90
54006;DHT22;39919;38.160;-122.260;2023-01-16T00:23:17;11.10;99.90
54006;DHT22;39919;38.160;-122.260;2023-01-16T00:25:46;11.10;99.90
54006;DHT22;39919;38.160;-122.260;2023-01-16T00:28:18;11.10;99.90
54006;DHT22;39919;38.160;-122.260;2023-01-16T00:30:47;11.10;99.90
54006;DHT22;39919;38.160;-122.260;2023-01-16T00:33:17;11.10;99.90
54006;DHT22;39919;38.160;-122.260;2023-01-16T00:35:47;11.10;99.90
54006;DHT22;39919;38.160;-122.260;2023-01-16T00:38:18;11.10;99.90
54006;DHT22;39919;38.160;-122.260;2023-01-16T00:40:47;11.10;99.90
54006;DHT22;39919;38.160;-122.260;2023-01-16T00:43:16;11.10;99.90
54006;DHT22;39919;38.160;-122.260;2023-01-16T00:45:48;11.00;99.90
54006;DHT22;39919;38.160;-122.260;2023-01-16T00:48:17;11.00;99.90
54006;DHT22;39919;38.160;-122.260;2023-01-16T00:50:47;11.00;99.90
54006;DHT22;39919;38.160;-122.260;2023-01-16T00:53:18;11.00;99.90
54006;DHT22;39919;38.160;-122.260;2023-01-16T00:55:49;11.00;99.90
54006;DHT22;39919;38.160;-122.260;2023-01-16T00:58:20;11.00;99.90
54006;DHT22;39919;38.160;-122.260;2023-01-16T01:00:49;11.00;99.90
54006;DHT22;39919;38.160;-122.260;2023-01-16T01:03:18;11.00;99.90
54006;DHT22;39919;38.160;-122.260;2023-01-16T01:05:48;11.00;99.90
54006;DHT22;39919;38.160;-122.260;2023-01-16T01:08:19;11.00;99.90
54006;DHT22;39919;38.160;-122.260;2023-01-16T01:10:49;11.00;99.90
54006;DHT22;39919;38.160;-122.260;2023-01-16T01:13:18;11.00;99.90
54006;DHT22;39919;38.160;-122.260;2023-01-16T01:15:47;11.00;99.90
54006;DHT22;39919;38.160;-122.260;2023-01-16T01:18:16;10.90;99.90
54006;DHT22;39919;38.160;-122.260;2023-01-16T01:20:47;10.90;99.90
54006;DHT22;39919;38.160;-122.260;2023-01-16T01:23:18;10.90;99.90
54006;DHT22;39919;38.160;-122.260;2023-01-16T01:25:47;10.90;99.90
54006;DHT22;39919;38.160;-122.260;2023-01-16T01:28:16;10.90;99.90
54006;DHT22;39919;38.160;-122.260;2023-01-16T01:30:46;10.80;99.90
54006;DHT22;39919;38.160;-122.260;2023-01-16T01:33:17;10.80;99.90
54006;DHT22;39919;38.160;-122.260;2023-01-16T01:35:48;10.80;99.90
54006;DHT22;39919;38.160;-122.260;2023-01-16T01:38:20;10.80;99.90
54006;DHT22;39919;38.160;-122.260;2023-01-16T01:40:49;10.80;99.90
54006;DHT22;39919;38.160;-122.260;2023-01-16T01:43:19;10.80;99.90
54006;DHT22;39919;38.160;-122.260;2023-01-16T01:45:50;10.70;99.90
54006;DHT22;39919;38.160;-122.260;2023-01-16T01:48:24;10.70;99.90
54006;DHT22;39919;38.160;-122.260;2023-01-16T01:50:58;10.70;99.90
54006;DHT22;39919;38.160;-122.260;2023-01-16T01:53:34;10.70;99.90
54006;DHT22;39919;38.160;-122.260;2023-01-16T01:56:07;10.70;99.90
54006;DHT22;39919;38.160;-122.260;2023-01-16T01:58:38;10.60;99.90
54006;DHT22;39919;38.160;-122.260;2023-01-16T02:01:08;10.60;99.90
54006;DHT22;39919;38.160;-122.260;2023-01-16T02:03:39;10.60;99.90
54006;DHT22;39919;38.160;-122.260;2023-01-16T02:06:17;10.60;99.90
54006;DHT22;39919;38.160;-122.260;2023-01-16T02:08:53;10.60;99.90
54006;DHT22;39919;38.160;-122.260;2023-01-16T02:11:38;10.60;99.90
54006;DHT22;39919;38.160;-122.260;2023-01-16T02:14:11;10.60;99.90
54006;DHT22;39919;38.160;-122.260;2023-01-16T02:16:41;10.60;99.90
54006;DHT22;39919;38.160;-122.260;2023-01-16T02:19:33;10.60;99.90
54006;DHT22;39919;38.160;-122.260;2023-01-16T02:22:55;10.60;99.90
54006;DHT22;39919;38.160;-122.260;2023-01-16T02:28:57;10.50;99.90
54006;DHT22;39919;38.160;-122.260;2023-01-16T02:31:38;10.50;99.90
54006;DHT22;39919;38.160;-122.260;2023-01-16T02:34:23;10.50;99.90
54006;DHT22;39919;38.160;-122.260;2023-01-16T02:37:10;10.50;99.90
54006;DHT22;39919;38.160;-122.260;2023-01-16T02:39:47;10.50;99.90
54006;DHT22;39919;38.160;-122.260;2023-01-16T02:42:26;10.50;99.90
54006;DHT22;39919;38.160;-122.260;2023-01-16T02:45:02;10.50;99.90
54006;DHT22;39919;38.160;-122.260;2023-01-16T02:47:38;10.50;99.90
54006;DHT22;39919;38.160;-122.260;2023-01-16T02:50:21;10.50;99.90
54006;DHT22;39919;38.160;-122.260;2023-01-16T02:53:01;10.50;99.90
54006;DHT22;39919;38.160;-122.260;2023-01-16T02:55:40;10.50;99.90
54006;DHT22;39919;38.160;-122.260;2023-01-16T02:58:11;10.50;99.90
54006;DHT22;39919;38.160;-122.260;2023-01-16T03:00:53;10.50;99.90
54006;DHT22;39919;38.160;-122.260;2023-01-16T03:03:39;10.40;99.90
54006;DHT22;39919;38.160;-122.260;2023-01-16T03:06:31;10.50;99.90
54006;DHT22;39919;38.160;-122.260;2023-01-16T03:09:13;10.40;99.90
54006;DHT22;39919;38.160;-122.260;2023-01-16T03:11:52;10.40;99.90
54006;DHT22;39919;38.160;-122.260;2023-01-16T03:14:36;10.40;99.90
54006;DHT22;39919;38.160;-122.260;2023-01-16T03:17:25;10.40;99.90
54006;DHT22;39919;38.160;-122.260;2023-01-16T03:20:13;10.40;99.90
54006;DHT22;39919;38.160;-122.260;2023-01-16T03:22:52;10.30;99.90
54006;DHT22;39919;38.160;-122.260;2023-01-16T03:25:32;10.30;99.90
54006;DHT22;39919;38.160;-122.260;2023-01-16T03:28:10;10.30;99.90
54006;DHT22;39919;38.160;-122.260;2023-01-16T03:30:51;10.30;99.90
54006;DHT22;39919;38.160;-122.260;2023-01-16T03:33:33;10.50;99.90
54006;DHT22;39919;38.160;-122.260;2023-01-16T03:36:14;10.10;99.90
54006;DHT22;39919;38.160;-122.260;2023-01-16T03:38:45;10.10;99.90
54006;DHT22;39919;38.160;-122.260;2023-01-16T03:41:22;10.10;99.90
54006;DHT22;39919;38.160;-122.260;2023-01-16T03:44:00;10.10;99.90
54006;DHT22;39919;38.160;-122.260;2023-01-16T03:46:40;10.10;99.90
54006;DHT22;39919;38.160;-122.260;2023-01-16T03:49:18;10.10;99.90
54006;DHT22;39919;38.160;-122.260;2023-01-16T03:51:52;10.10;99.90
54006;DHT22;39919;38.160;-122.260;2023-01-16T03:54:32;10.10;99.90
54006;DHT22;39919;38.160;-122.260;2023-01-16T03:57:09;10.10;99.90
54006;DHT22;39919;38.160;-122.260;2023-01-16T03:59:40;10.10;99.90
54006;DHT22;39919;38.160;-122.260;2023-01-16T04:02:14;10.00;99.90
54006;DHT22;39919;38.160;-122.260;2023-01-16T04:04:51;10.00;99.90
54006;DHT22;39919;38.160;-122.260;2023-01-16T04:07:29;10.00;99.90
54006;DHT22;39919;38.160;-122.260;2023-01-16T04:10:06;10.00;99.90
54006;DHT22;39919;38.160;-122.260;2023-01-16T04:12:42;10.00;99.90
54006;DHT22;39919;38.160;-122.260;2023-01-16T04:15:12;10.00;99.90
54006;DHT22;39919;38.160;-122.260;2023-01-16T04:17:43;10.00;99.90
54006;DHT22;39919;38.160;-122.260;2023-01-16T04:20:13;10.00;99.90
54006;DHT22;39919;38.160;-122.260;2023-01-16T04:22:48;10.00;99.90
54006;DHT22;39919;38.160;-122.260;2023-01-16T04:25:18;10.00;99.90
54006;DHT22;39919;38.160;-122.260;2023-01-16T04:27:47;9.90;99.90
54006;DHT22;39919;38.160;-122.260;2023-01-16T04:30:17;9.90;99.90
54006;DHT22;39919;38.160;-122.260;2023-01-16T04:32:48;9.90;99.90
54006;DHT22;39919;38.160;-122.260;2023-01-16T04:35:17;9.80;99.90
54006;DHT22;39919;38.160;-122.260;2023-01-16T04:37:48;9.80;99.90
54006;DHT22;39919;38.160;-122.260;2023-01-16T04:40:17;9.80;99.90
54006;DHT22;39919;38.160;-122.260;2023-01-16T04:42:46;9.70;99.90
54006;DHT22;39919;38.160;-122.260;2023-01-16T04:45:16;9.70;99.90
54006;DHT22;39919;38.160;-122.260;2023-01-16T04:47:55;9.70;99.90
54006;DHT22;39919;38.160;-122.260;2023-01-16T04:50:24;9.60;99.90
54006;DHT22;39919;38.160;-122.260;2023-01-16T04:52:58;9.60;99.90
54006;DHT22;39919;38.160;-122.260;2023-01-16T04:55:27;9.50;99.90
54006;DHT22;39919;38.160;-122.260;2023-01-16T04:57:56;9.50;99.90
54006;DHT22;39919;38.160;-122.260;2023-01-16T05:00:28;9.50;99.90
54006;DHT22;39919;38.160;-122.260;2023-01-16T05:02:57;9.40;99.90
54006;DHT22;39919;38.160;-122.260;2023-01-16T05:05:26;9.40;99.90
54006;DHT22;39919;38.160;-122.260;2023-01-16T05:08:07;9.40;99.90
54006;DHT22;39919;38.160;-122.260;2023-01-16T05:10:45;9.40;99.90
54006;DHT22;39919;38.160;-122.260;2023-01-16T05:13:14;9.40;99.90
54006;DHT22;39919;38.160;-122.260;2023-01-16T05:15:44;9.30;99.90
54006;DHT22;39919;38.160;-122.260;2023-01-16T05:18:13;9.30;99.90
54006;DHT22;39919;38.160;-122.260;2023-01-16T05:20:51;9.30;99.90
54006;DHT22;39919;38.160;-122.260;2023-01-16T05:23:22;9.30;99.90
54006;DHT22;39919;38.160;-122.260;2023-01-16T05:25:52;9.30;99.90
54006;DHT22;39919;38.160;-122.260;2023-01-16T05:28:23;9.30;99.90
54006;DHT22;39919;38.160;-122.260;2023-01-16T05:30:52;9.30;99.90
54006;DHT22;39919;38.160;-122.260;2023-01-16T05:33:23;9.30;99.90
54006;DHT22;39919;38.160;-122.260;2023-01-16T05:35:53;9.30;99.90
54006;DHT22;39919;38.160;-122.260;2023-01-16T05:38:23;9.30;99.90
54006;DHT22;39919;38.160;-122.260;2023-01-16T05:40:53;9.30;99.90
54006;DHT22;39919;38.160;-122.260;2023-01-16T05:43:25;9.20;99.90
54006;DHT22;39919;38.160;-122.260;2023-01-16T05:45:56;9.30;99.90
54006;DHT22;39919;38.160;-122.260;2023-01-16T05:48:26;9.20;99.90
54006;DHT22;39919;38.160;-122.260;2023-01-16T05:50:59;9.20;99.90
54006;DHT22;39919;38.160;-122.260;2023-01-16T05:53:33;9.20;99.90
54006;DHT22;39919;38.160;-122.260;2023-01-16T05:56:08;9.20;99.90
54006;DHT22;39919;38.160;-122.260;2023-01-16T05:58:38;9.30;99.90
54006;DHT22;39919;38.160;-122.260;2023-01-16T06:01:09;9.20;99.90
54006;DHT22;39919;38.160;-122.260;2023-01-16T06:03:38;9.20;99.90
54006;DHT22;39919;38.160;-122.260;2023-01-16T06:06:07;9.20;99.90
54006;DHT22;39919;38.160;-122.260;2023-01-16T06:08:41;9.30;99.90
54006;DHT22;39919;38.160;-122.260;2023-01-16T06:11:10;9.30;99.90
54006;DHT22;39919;38.160;-122.260;2023-01-16T06:13:39;9.30;99.90
54006;DHT22;39919;38.160;-122.260;2023-01-16T06:16:10;9.30;99.90
54006;DHT22;39919;38.160;-122.260;2023-01-16T06:18:40;9.20;99.90
54006;DHT22;39919;38.160;-122.260;2023-01-16T06:21:09;9.20;99.90
54006;DHT22;39919;38.160;-122.260;2023-01-16T06:23:44;9.20;99.90
54006;DHT22;39919;38.160;-122.260;2023-01-16T06:26:16;9.20;99.90
54006;DHT22;39919;38.160;-122.260;2023-01-16T06:28:46;9.20;99.90
54006;DHT22;39919;38.160;-122.260;2023-01-16T06:31:18;9.20;99.90
54006;DHT22;39919;38.160;-122.260;2023-01-16T06:33:47;9.20;99.90
54006;DHT22;39919;38.160;-122.260;2023-01-16T06:36:16;9.20;99.90
54006;DHT22;39919;38.160;-122.260;2023-01-16T06:38:49;9.10;99.90
54006;DHT22;39919;38.160;-122.260;2023-01-16T06:41:19;9.10;99.90
54006;DHT22;39919;38.160;-122.260;2023-01-16T06:43:52;9.10;99.90
54006;DHT22;39919;38.160;-122.260;2023-01-16T06:46:22;9.10;99.90
54006;DHT22;39919;38.160;-122.260;2023-01-16T06:48:51;9.10;99.90
54006;DHT22;39919;38.160;-122.260;2023-01-16T06:51:20;9.10;99.90
54006;DHT22;39919;38.160;-122.260;2023-01-16T06:53:55;9.10;99.90
54006;DHT22;39919;38.160;-122.260;2023-01-16T06:56:24;9.00;99.90
54006;DHT22;39919;38.160;-122.260;2023-01-16T06:58:55;9.00;99.90
54006;DHT22;39919;38.160;-122.260;2023-01-16T07:01:28;9.00;99.90
54006;DHT22;39919;38.160;-122.260;2023-01-16T07:03:57;8.90;99.90
54006;DHT22;39919;38.160;-122.260;2023-01-16T07:06:26;8.90;99.90
54006;DHT22;39919;38.160;-122.260;2023-01-16T07:08:57;8.90;99.90
54006;DHT22;39919;38.160;-122.260;2023-01-16T07:11:26;8.80;99.90
54006;DHT22;39919;38.160;-122.260;2023-01-16T07:13:58;8.80;99.90
54006;DHT22;39919;38.160;-122.260;2023-01-16T07:16:40;8.80;99.90
54006;DHT22;39919;38.160;-122.260;2023-01-16T07:19:26;8.70;99.90
54006;DHT22;39919;38.160;-122.260;2023-01-16T07:22:13;8.70;99.90
54006;DHT22;39919;38.160;-122.260;2023-01-16T07:24:57;8.70;99.90
54006;DHT22;39919;38.160;-122.260;2023-01-16T07:27:29;8.60;99.90
54006;DHT22;39919;38.160;-122.260;2023-01-16T07:29:59;8.60;99.90
54006;DHT22;39919;38.160;-122.260;2023-01-16T07:32:28;8.60;99.90
54006;DHT22;39919;38.160;-122.260;2023-01-16T07:34:57;8.50;99.90
54006;DHT22;39919;38.160;-122.260;2023-01-16T07:37:26;8.50;99.90
54006;DHT22;39919;38.160;-122.260;2023-01-16T07:40:00;8.50;99.90
54006;DHT22;39919;38.160;-122.260;2023-01-16T07:42:31;8.50;99.90
54006;DHT22;39919;38.160;-122.260;2023-01-16T07:45:05;8.50;99.90
54006;DHT22;39919;38.160;-122.260;2023-01-16T07:47:35;8.50;99.90
54006;DHT22;39919;38.160;-122.260;2023-01-16T07:50:04;8.40;99.90
54006;DHT22;39919;38.160;-122.260;2023-01-16T07:52:41;8.50;99.90
54006;DHT22;39919;38.160;-122.260;2023-01-16T07:55:18;8.50;99.90
54006;DHT22;39919;38.160;-122.260;2023-01-16T07:57:50;8.50;99.90
54006;DHT22;39919;38.160;-122.260;2023-01-16T08:00:19;8.40;99.90
54006;DHT22;39919;38.160;-122.260;2023-01-16T08:02:51;8.40;99.90
54006;DHT22;39919;38.160;-122.260;2023-01-16T08:05:20;8.40;99.90
54006;DHT22;39919;38.160;-122.260;2023-01-16T08:07:49;8.50;99.90
54006;DHT22;39919;38.160;-122.260;2023-01-16T08:10:20;8.50;99.90
54006;DHT22;39919;38.160;-122.260;2023-01-16T08:12:52;8.50;99.90
54006;DHT22;39919;38.160;-122.260;2023-01-16T08:15:24;8.50;99.90
54006;DHT22;39919;38.160;-122.260;2023-01-16T08:17:54;8.50;99.90
54006;DHT22;39919;38.160;-122.260;2023-01-16T08:20:23;8.50;99.90
54006;DHT22;39919;38.160;-122.260;2023-01-16T08:22:56;8.50;99.90
54006;DHT22;39919;38.160;-122.260;2023-01-16T08:25:31;8.50;99.90
54006;DHT22;39919;38.160;-122.260;2023-01-16T08:28:03;8.40;99.90
54006;DHT22;39919;38.160;-122.260;2023-01-16T08:30:32;8.50;99.90
54006;DHT22;39919;38.160;-122.260;2023-01-16T08:33:02;8.40;99.90
54006;DHT22;39919;38.160;-122.260;2023-01-16T08:35:32;8.50;99.90
54006;DHT22;39919;38.160;-122.260;2023-01-16T08:38:01;8.40;99.90
54006;DHT22;39919;38.160;-122.260;2023-01-16T08:40:34;8.40;99.90
54006;DHT22;39919;38.160;-122.260;2023-01-16T08:43:04;8.40;99.90
54006;DHT22;39919;38.160;-122.260;2023-01-16T08:45:49;8.40;99.90
54006;DHT22;39919;38.160;-122.260;2023-01-16T08:48:35;8.40;99.90
54006;DHT22;39919;38.160;-122.260;2023-01-16T08:51:33;8.40;99.90
54006;DHT22;39919;38.160;-122.260;2023-01-16T08:54:10;8.40;99.90
54006;DHT22;39919;38.160;-122.260;2023-01-16T08:56:41;8.40;99.90
54006;DHT22;39919;38.160;-122.260;2023-01-16T08:59:11;8.40;99.90
54006;DHT22;39919;38.160;-122.260;2023-01-16T09:01:49;8.30;99.90
54006;DHT22;39919;38.160;-122.260;2023-01-16T09:04:21;8.40;99.90
54006;DHT22;39919;38.160;-122.260;2023-01-16T09:06:50;8.30;99.90
54006;DHT22;39919;38.160;-122.260;2023-01-16T09:09:20;8.30;99.90
54006;DHT22;39919;38.160;-122.260;2023-01-16T09:11:57;8.30;99.90
54006;DHT22;39919;38.160;-122.260;2023-01-16T09:14:43;8.30;99.90
54006;DHT22;39919;38.160;-122.260;2023-01-16T09:17:12;8.30;99.90
54006;DHT22;39919;38.160;-122.260;2023-01-16T09:19:41;8.20;99.90
54006;DHT22;39919;38.160;-122.260;2023-01-16T09:22:12;8.20;99.90
54006;DHT22;39919;38.160;-122.260;2023-01-16T09:24:41;8.20;99.90
54006;DHT22;39919;38.160;-122.260;2023-01-16T09:27:16;8.10;99.90
54006;DHT22;39919;38.160;-122.260;2023-01-16T09:29:46;8.10;99.90
54006;DHT22;39919;38.160;-122.260;2023-01-16T09:32:15;8.10;99.90
54006;DHT22;39919;38.160;-122.260;2023-01-16T09:34:45;8.10;99.90
54006;DHT22;39919;38.160;-122.260;2023-01-16T09:37:14;8.00;99.90
54006;DHT22;39919;38.160;-122.260;2023-01-16T09:39:45;8.00;99.90
54006;DHT22;39919;38.160;-122.260;2023-01-16T09:42:30;8.00;99.90
54006;DHT22;39919;38.160;-122.260;2023-01-16T09:45:20;8.00;99.90
54006;DHT22;39919;38.160;-122.260;2023-01-16T09:47:57;7.90;99.90
54006;DHT22;39919;38.160;-122.260;2023-01-16T09:50:33;7.90;99.90
54006;DHT22;39919;38.160;-122.260;2023-01-16T09:53:09;7.90;99.90
54006;DHT22;39919;38.160;-122.260;2023-01-16T09:55:57;7.90;99.90
54006;DHT22;39919;38.160;-122.260;2023-01-16T09:58:48;7.90;99.90
54006;DHT22;39919;38.160;-122.260;2023-01-16T10:01:28;7.90;99.90
54006;DHT22;39919;38.160;-122.260;2023-01-16T10:04:09;7.90;99.90
54006;DHT22;39919;38.160;-122.260;2023-01-16T10:06:46;7.90;99.90
54006;DHT22;39919;38.160;-122.260;2023-01-16T10:09:24;7.90;99.90
54006;DHT22;39919;38.160;-122.260;2023-01-16T10:11:59;7.90;99.90
54006;DHT22;39919;38.160;-122.260;2023-01-16T10:14:45;7.90;99.90
54006;DHT22;39919;38.160;-122.260;2023-01-16T10:17:21;7.90;99.90
54006;DHT22;39919;38.160;-122.260;2023-01-16T10:20:11;7.90;99.90
54006;DHT22;39919;38.160;-122.260;2023-01-16T10:22:54;7.90;99.90
54006;DHT22;39919;38.160;-122.260;2023-01-16T10:25:29;7.90;99.90
54006;DHT22;39919;38.160;-122.260;2023-01-16T10:28:11;7.90;99.90
54006;DHT22;39919;38.160;-122.260;2023-01-16T10:30:52;7.90;99.90
54006;DHT22;39919;38.160;-122.260;2023-01-16T10:33:28;7.90;99.90
54006;DHT22;39919;38.160;-122.260;2023-01-16T10:36:00;7.90;99.90
54006;DHT22;39919;38.160;-122.260;2023-01-16T10:38:35;7.90;99.90
54006;DHT22;39919;38.160;-122.260;2023-01-16T10:41:12;7.90;99.90
54006;DHT22;39919;38.160;-122.260;2023-01-16T10:44:11;7.90;99.90
54006;DHT22;39919;38.160;-122.260;2023-01-16T10:47:03;7.90;99.90
54006;DHT22;39919;38.160;-122.260;2023-01-16T10:49:52;7.90;99.90
54006;DHT22;39919;38.160;-122.260;2023-01-16T10:52:22;7.90;99.90
54006;DHT22;39919;38.160;-122.260;2023-01-16T10:54:52;7.90;99.90
54006;DHT22;39919;38.160;-122.260;2023-01-16T10:57:22;7.90;99.90
54006;DHT22;39919;38.160;-122.260;2023-01-16T10:59:53;7.90;99.90
54006;DHT22;39919;38.160;-122.260;2023-01-16T11:02:29;7.90;99.90
54006;DHT22;39919;38.160;-122.260;2023-01-16T11:05:03;7.80;99.90
54006;DHT22;39919;38.160;-122.260;2023-01-16T11:07:53;7.80;99.90
54006;DHT22;39919;38.160;-122.260;2023-01-16T11:10:22;7.80;99.90
54006;DHT22;39919;38.160;-122.260;2023-01-16T11:12:52;7.80;99.90
54006;DHT22;39919;38.160;-122.260;2023-01-16T11:15:38;7.80;99.90
54006;DHT22;39919;38.160;-122.260;2023-01-16T11:18:31;7.80;99.90
54006;DHT22;39919;38.160;-122.260;2023-01-16T11:21:13;7.80;99.90
54006;DHT22;39919;38.160;-122.260;2023-01-16T11:23:44;7.80;99.90
54006;DHT22;39919;38.160;-122.260;2023-01-16T11:26:18;7.80;99.90
54006;DHT22;39919;38.160;-122.260;2023-01-16T11:28:47;7.80;99.90
54006;DHT22;39919;38.160;-122.260;2023-01-16T11:31:19;7.90;99.90
54006;DHT22;39919;38.160;-122.260;2023-01-16T11:33:54;7.90;99.90
54006;DHT22;39919;38.160;-122.260;2023-01-16T11:36:34;7.90;99.90
54006;DHT22;39919;38.160;-122.260;2023-01-16T11:39:04;7.90;99.90
54006;DHT22;39919;38.160;-122.260;2023-01-16T11:41:38;7.90;99.90
54006;DHT22;39919;38.160;-122.260;2023-01-16T11:44:13;7.90;99.90
54006;DHT22;39919;38.160;-122.260;2023-01-16T11:47:01;7.90;99.90
54006;DHT22;39919;38.160;-122.260;2023-01-16T11:49:37;7.90;99.90
54006;DHT22;39919;38.160;-122.260;2023-01-16T11:52:12;7.90;99.90
54006;DHT22;39919;38.160;-122.260;2023-01-16T11:54:56;7.90;99.90
54006;DHT22;39919;38.160;-122.260;2023-01-16T11:57:44;7.90;99.90
54006;DHT22;39919;38.160;-122.260;2023-01-16T12:00:43;7.90;99.90
54006;DHT22;39919;38.160;-122.260;2023-01-16T12:06:48;8.00;99.90
54006;DHT22;39919;38.160;-122.260;2023-01-16T12:09:32;8.00;99.90
54006;DHT22;39919;38.160;-122.260;2023-01-16T12:12:23;8.00;99.90
54006;DHT22;39919;38.160;-122.260;2023-01-16T12:15:15;8.00;99.90
54006;DHT22;39919;38.160;-122.260;2023-01-16T12:18:05;8.00;99.90
54006;DHT22;39919;38.160;-122.260;2023-01-16T12:20:46;8.00;99.90
54006;DHT22;39919;38.160;-122.260;2023-01-16T12:23:44;8.00;99.90
54006;DHT22;39919;38.160;-122.260;2023-01-16T12:26:21;8.00;99.90
54006;DHT22;39919;38.160;-122.260;2023-01-16T12:31:58;8.00;99.90
54006;DHT22;39919;38.160;-122.260;2023-01-16T12:34:37;8.00;99.90
54006;DHT22;39919;38.160;-122.260;2023-01-16T12:37:24;8.00;99.90
54006;DHT22;39919;38.160;-122.260;2023-01-16T12:40:03;8.00;99.90
54006;DHT22;39919;38.160;-122.260;2023-01-16T12:42:41;8.00;99.90
54006;DHT22;39919;38.160;-122.260;2023-01-16T12:45:38;8.10;99.90
54006;DHT22;39919;38.160;-122.260;2023-01-16T12:48:39;8.00;99.90
54006;DHT22;39919;38.160;-122.260;2023-01-16T12:51:37;8.00;99.90
54006;DHT22;39919;38.160;-122.260;2023-01-16T12:54:50;8.10;99.90
54006;DHT22;39919;38.160;-122.260;2023-01-16T13:00:20;8.10;99.90
54006;DHT22;39919;38.160;-122.260;2023-01-16T13:02:56;8.10;99.90
54006;DHT22;39919;38.160;-122.260;2023-01-16T13:05:27;8.10;99.90
54006;DHT22;39919;38.160;-122.260;2023-01-16T13:08:05;8.10;99.90
54006;DHT22;39919;38.160;-122.260;2023-01-16T13:10:42;8.10;99.90
54006;DHT22;39919;38.160;-122.260;2023-01-16T13:13:33;8.20;99.90
54006;DHT22;39919;38.160;-122.260;2023-01-16T13:16:08;8.10;99.90
54006;DHT22;39919;38.160;-122.260;2023-01-16T13:18:44;8.10;99.90
54006;DHT22;39919;38.160;-122.260;2023-01-16T13:21:17;8.20;99.90
54006;DHT22;39919;38.160;-122.260;2023-01-16T13:23:50;8.20;99.90
54006;DHT22;39919;38.160;-122.260;2023-01-16T13:26:22;8.20;99.90
54006;DHT22;39919;38.160;-122.260;2023-01-16T13:28:57;8.20;99.90
54006;DHT22;39919;38.160;-122.260;2023-01-16T13:31:33;8.20;99.90
54006;DHT22;39919;38.160;-122.260;2023-01-16T13:34:10;8.20;99.90
54006;DHT22;39919;38.160;-122.260;2023-01-16T13:37:13;8.20;99.90
54006;DHT22;39919;38.160;-122.260;2023-01-16T13:40:28;8.20;99.90
54006;DHT22;39919;38.160;-122.260;2023-01-16T13:43:06;8.20;99.90
54006;DHT22;39919;38.160;-122.260;2023-01-16T13:45:58;8.20;99.90
54006;DHT22;39919;38.160;-122.260;2023-01-16T13:48:30;8.20;99.90
54006;DHT22;39919;38.160;-122.260;2023-01-16T13:51:01;8.20;99.90
54006;DHT22;39919;38.160;-122.260;2023-01-16T13:53:35;8.20;99.90
54006;DHT22;39919;38.160;-122.260;2023-01-16T13:56:12;8.30;99.90
54006;DHT22;39919;38.160;-122.260;2023-01-16T13:58:49;8.20;99.90
54006;DHT22;39919;38.160;-122.260;2023-01-16T14:01:56;8.30;99.90
54006;DHT22;39919;38.160;-122.260;2023-01-16T14:04:31;8.20;99.90
54006;DHT22;39919;38.160;-122.260;2023-01-16T14:07:02;8.30;99.90
54006;DHT22;39919;38.160;-122.260;2023-01-16T14:10:22;8.20;99.90
54006;DHT22;39919;38.160;-122.260;2023-01-16T14:13:12;8.30;99.90
54006;DHT22;39919;38.160;-122.260;2023-01-16T14:15:48;8.30;99.90
54006;DHT22;39919;38.160;-122.260;2023-01-16T14:18:42;8.30;99.90
54006;DHT22;39919;38.160;-122.260;2023-01-16T14:21:24;8.30;99.90
54006;DHT22;39919;38.160;-122.260;2023-01-16T14:24:01;8.30;99.90
54006;DHT22;39919;38.160;-122.260;2023-01-16T14:26:40;8.30;99.90
54006;DHT22;39919;38.160;-122.260;2023-01-16T14:29:20;8.20;99.90
54006;DHT22;39919;38.160;-122.260;2023-01-16T14:31:55;8.20;99.90
54006;DHT22;39919;38.160;-122.260;2023-01-16T14:34:33;8.20;99.90
54006;DHT22;39919;38.160;-122.260;2023-01-16T14:37:05;8.30;99.90
54006;DHT22;39919;38.160;-122.260;2023-01-16T14:39:47;8.20;99.90
54006;DHT22;39919;38.160;-122.260;2023-01-16T14:42:30;8.20;99.90
54006;DHT22;39919;38.160;-122.260;2023-01-16T14:45:28;8.30;99.90
54006;DHT22;39919;38.160;-122.260;2023-01-16T14:48:33;8.30;99.90
54006;DHT22;39919;38.160;-122.260;2023-01-16T14:51:30;8.30;99.90
54006;DHT22;39919;38.160;-122.260;2023-01-16T14:54:19;8.30;99.90
54006;DHT22;39919;38.160;-122.260;2023-01-16T14:57:10;8.30;99.90
54006;DHT22;39919;38.160;-122.260;2023-01-16T14:59:44;8.30;99.90
54006;DHT22;39919;38.160;-122.260;2023-01-16T15:02:19;8.30;99.90
54006;DHT22;39919;38.160;-122.260;2023-01-16T15:04:59;8.30;99.90
54006;DHT22;39919;38.160;-122.260;2023-01-16T15:07:40;8.30;99.90
54006;DHT22;39919;38.160;-122.260;2023-01-16T15:10:12;8.30;99.90
54006;DHT22;39919;38.160;-122.260;2023-01-16T15:12:43;8.30;99.90
54006;DHT22;39919;38.160;-122.260;2023-01-16T15:15:23;8.30;99.90
54006;DHT22;39919;38.160;-122.260;2023-01-16T15:17:54;8.30;99.90
54006;DHT22;39919;38.160;-122.260;2023-01-16T15:20:43;8.30;99.90
54006;DHT22;39919;38.160;-122.260;2023-01-16T15:23:32;8.30;99.90
54006;DHT22;39919;38.160;-122.260;2023-01-16T15:26:26;8.30;99.90
54006;DHT22;39919;38.160;-122.260;2023-01-16T15:29:17;8.20;99.90
54006;DHT22;39919;38.160;-122.260;2023-01-16T15:31:56;8.20;99.90
54006;DHT22;39919;38.160;-122.260;2023-01-16T15:34:29;8.20;99.90
54006;DHT22;39919;38.160;-122.260;2023-01-16T15:36:59;8.20;99.90
54006;DHT22;39919;38.160;-122.260;2023-01-16T15:39:39;8.20;99.90
54006;DHT22;39919;38.160;-122.260;2023-01-16T15:42:13;8.20;99.90
54006;DHT22;39919;38.160;-122.260;2023-01-16T15:45:01;8.20;99.90
54006;DHT22;39919;38.160;-122.260;2023-01-16T15:50:57;8.20;99.90
54006;DHT22;39919;38.160;-122.260;2023-01-16T15:53:31;8.20;99.90
54006;DHT22;39919;38.160;-122.260;2023-01-16T15:56:04;8.20;99.90
54006;DHT22;39919;38.160;-122.260;2023-01-16T15:58:36;8.20;99.90
54006;DHT22;39919;38.160;-122.260;2023-01-16T16:01:06;8.20;99.90
54006;DHT22;39919;38.160;-122.260;2023-01-16T16:03:39;8.20;99.90
54006;DHT22;39919;38.160;-122.260;2023-01-16T16:06:11;8.20;99.90
54006;DHT22;39919;38.160;-122.260;2023-01-16T16:08:45;8.30;99.90